sensor_id;sensor_type;location;lat;lon;timestamp;pressure;altitude;pressure_sealevel;temperature;humidity
64230;BME280;50547;49.498;0.092;2023-04-29T00:00:16;1014.84;;;12.95;88.87
64230;BME280;50547;49.498;0.092;2023-04-29T00:02:45;1014.80;;;12.81;89.31
64230;BME280;50547;49.498;0.092;2023-04-29T00:05:15;1014.76;;;12.71;89.82
64230;BME280;50547;49.498;0.092;2023-04-29T00:07:44;1014.74;;;12.66;89.74
64230;BME280;50547;49.498;0.092;2023-04-29T00:10:13;1014.76;;;12.64;89.75
64230;BME280;50547;49.498;0.092;2023-04-29T00:12:42;1014.80;;;12.58;90.01
64230;BME280;50547;49.498;0.092;2023-04-29T00:15:11;1014.84;;;12.58;89.92
64230;BME280;50547;49.498;0.092;2023-04-29T00:17:40;1014.89;;;12.56;89.94
64230;BME280;50547;49.498;0.092;2023-04-29T00:20:10;1014.87;;;12.53;90.00
64230;BME280;50547;49.498;0.092;2023-04-29T00:22:40;1014.89;;;12.45;90.50
64230;BME280;50547;49.498;0.092;2023-04-29T00:25:09;1014.93;;;12.49;90.31
64230;BME280;50547;49.498;0.092;2023-04-29T00:27:38;1014.95;;;12.49;90.48
64230;BME280;50547;49.498;0.092;2023-04-29T00:30:08;1014.99;;;12.59;89.95
64230;BME280;50547;49.498;0.092;2023-04-29T00:32:37;1014.99;;;12.55;90.31
64230;BME280;50547;49.498;0.092;2023-04-29T00:35:07;1014.93;;;12.41;90.97
64230;BME280;50547;49.498;0.092;2023-04-29T00:37:36;1014.91;;;12.43;90.66
64230;BME280;50547;49.498;0.092;2023-04-29T00:40:07;1014.89;;;12.47;90.50
64230;BME280;50547;49.498;0.092;2023-04-29T00:42:36;1014.95;;;12.39;90.89
64230;BME280;50547;49.498;0.092;2023-04-29T00:45:06;1014.93;;;12.37;90.93
64230;BME280;50547;49.498;0.092;2023-04-29T00:47:36;1014.93;;;12.25;91.47
64230;BME280;50547;49.498;0.092;2023-04-29T00:50:07;1014.95;;;12.29;91.18
64230;BME280;50547;49.498;0.092;2023-04-29T00:52:37;1014.89;;;12.30;91.00
64230;BME280;50547;49.498;0.092;2023-04-29T00:55:07;1014.89;;;12.36;90.71
64230;BME280;50547;49.498;0.092;2023-04-29T00:57:36;1014.91;;;12.41;90.45
64230;BME280;50547;49.498;0.092;2023-04-29T01:00:06;1014.91;;;12.42;90.32
64230;BME280;50547;49.498;0.092;2023-04-29T01:02:36;1014.91;;;12.29;90.98
64230;BME280;50547;49.498;0.092;2023-04-29T01:05:06;1014.89;;;12.22;91.39
64230;BME280;50547;49.498;0.092;2023-04-29T01:10:28;1014.84;;;12.18;91.08
64230;BME280;50547;49.498;0.092;2023-04-29T01:13:02;1014.87;;;12.07;91.67
64230;BME280;50547;49.498;0.092;2023-04-29T01:15:38;1014.87;;;12.08;91.34
64230;BME280;50547;49.498;0.092;2023-04-29T01:18:17;1014.84;;;12.00;91.83
64230;BME280;50547;49.498;0.092;2023-04-29T01:20:47;1014.87;;;11.96;91.86
64230;BME280;50547;49.498;0.092;2023-04-29T01:23:16;1014.87;;;11.97;91.44
64230;BME280;50547;49.498;0.092;2023-04-29T01:25:45;1014.80;;;11.79;92.36
64230;BME280;50547;49.498;0.092;2023-04-29T01:28:21;1014.82;;;11.83;92.37
64230;BME280;50547;49.498;0.092;2023-04-29T01:30:58;1014.84;;;11.91;91.84
64230;BME280;50547;49.498;0.092;2023-04-29T01:33:34;1014.82;;;11.91;91.84
64230;BME280;50547;49.498;0.092;2023-04-29T01:36:18;1014.82;;;11.86;91.99
64230;BME280;50547;49.498;0.092;2023-04-29T01:38:55;1014.91;;;11.57;93.15
64230;BME280;50547;49.498;0.092;2023-04-29T01:41:34;1014.93;;;11.47;93.49
64230;BME280;50547;49.498;0.092;2023-04-29T01:44:09;1014.95;;;11.45;93.31
64230;BME280;50547;49.498;0.092;2023-04-29T01:46:42;1014.99;;;11.44;93.12
64230;BME280;50547;49.498;0.092;2023-04-29T01:49:08;1014.93;;;11.44;92.92
64230;BME280;50547;49.498;0.092;2023-04-29T01:51:37;1014.97;;;11.43;92.76
64230;BME280;50547;49.498;0.092;2023-04-29T01:54:06;1014.97;;;11.36;93.16
64230;BME280;50547;49.498;0.092;2023-04-29T01:56:36;1014.91;;;11.33;93.24
64230;BME280;50547;49.498;0.092;2023-04-29T01:59:05;1014.91;;;11.37;92.92
64230;BME280;50547;49.498;0.092;2023-04-29T02:01:34;1014.93;;;11.40;92.75
64230;BME280;50547;49.498;0.092;2023-04-29T02:04:03;1014.93;;;11.44;92.70
64230;BME280;50547;49.498;0.092;2023-04-29T02:06:32;1014.99;;;11.47;92.82
64230;BME280;50547;49.498;0.092;2023-04-29T02:09:01;1014.97;;;11.55;92.55
64230;BME280;50547;49.498;0.092;2023-04-29T02:11:31;1014.97;;;11.60;92.55
64230;BME280;50547;49.498;0.092;2023-04-29T02:14:00;1015.03;;;11.70;92.34
64230;BME280;50547;49.498;0.092;2023-04-29T02:16:29;1015.01;;;11.87;91.76
64230;BME280;50547;49.498;0.092;2023-04-29T02:18:58;1015.01;;;12.01;91.57
64230;BME280;50547;49.498;0.092;2023-04-29T02:21:27;1014.99;;;12.06;91.56
64230;BME280;50547;49.498;0.092;2023-04-29T02:23:57;1015.03;;;12.15;91.55
64230;BME280;50547;49.498;0.092;2023-04-29T02:26:26;1014.97;;;12.22;91.44
64230;BME280;50547;49.498;0.092;2023-04-29T02:28:55;1014.99;;;12.14;91.75
64230;BME280;50547;49.498;0.092;2023-04-29T02:31:24;1014.99;;;12.13;91.82
64230;BME280;50547;49.498;0.092;2023-04-29T02:33:53;1015.01;;;12.38;90.73
64230;BME280;50547;49.498;0.092;2023-04-29T02:36:22;1015.01;;;12.37;91.01
64230;BME280;50547;49.498;0.092;2023-04-29T02:38:51;1014.93;;;12.30;91.45
64230;BME280;50547;49.498;0.092;2023-04-29T02:41:21;1014.89;;;12.25;91.63
64230;BME280;50547;49.498;0.092;2023-04-29T02:43:50;1014.97;;;12.13;91.88
64230;BME280;50547;49.498;0.092;2023-04-29T02:46:19;1014.97;;;12.10;91.78
64230;BME280;50547;49.498;0.092;2023-04-29T02:48:48;1014.95;;;12.02;91.99
64230;BME280;50547;49.498;0.092;2023-04-29T02:51:17;1014.97;;;12.06;91.86
64230;BME280;50547;49.498;0.092;2023-04-29T02:53:46;1015.07;;;12.16;91.41
64230;BME280;50547;49.498;0.092;2023-04-29T02:56:15;1015.05;;;12.09;91.66
64230;BME280;50547;49.498;0.092;2023-04-29T02:58:45;1015.05;;;12.16;91.41
64230;BME280;50547;49.498;0.092;2023-04-29T03:01:14;1015.07;;;12.11;91.59
64230;BME280;50547;49.498;0.092;2023-04-29T03:03:43;1015.09;;;12.23;91.05
64230;BME280;50547;49.498;0.092;2023-04-29T03:06:12;1015.17;;;12.21;91.28
64230;BME280;50547;49.498;0.092;2023-04-29T03:08:41;1015.15;;;12.34;90.84
64230;BME280;50547;49.498;0.092;2023-04-29T03:11:10;1015.17;;;12.54;90.21
64230;BME280;50547;49.498;0.092;2023-04-29T03:13:39;1015.03;;;12.44;90.89
64230;BME280;50547;49.498;0.092;2023-04-29T03:16:09;1015.07;;;12.37;90.96
64230;BME280;50547;49.498;0.092;2023-04-29T03:18:38;1015.11;;;12.43;90.68
64230;BME280;50547;49.498;0.092;2023-04-29T03:21:07;1015.09;;;12.39;90.91
64230;BME280;50547;49.498;0.092;2023-04-29T03:23:37;1015.15;;;12.39;91.07
64230;BME280;50547;49.498;0.092;2023-04-29T03:26:06;1015.13;;;12.40;91.18
64230;BME280;50547;49.498;0.092;2023-04-29T03:28:35;1015.19;;;12.11;92.58
64230;BME280;50547;49.498;0.092;2023-04-29T03:31:04;1015.19;;;12.15;92.24
64230;BME280;50547;49.498;0.092;2023-04-29T03:33:33;1015.17;;;12.00;92.53
64230;BME280;50547;49.498;0.092;2023-04-29T03:36:02;1015.19;;;11.87;92.90
64230;BME280;50547;49.498;0.092;2023-04-29T03:38:31;1015.21;;;11.82;92.86
64230;BME280;50547;49.498;0.092;2023-04-29T03:41:01;1015.23;;;12.07;91.48
64230;BME280;50547;49.498;0.092;2023-04-29T03:43:30;1015.29;;;12.12;91.35
64230;BME280;50547;49.498;0.092;2023-04-29T03:45:59;1015.29;;;12.18;91.39
64230;BME280;50547;49.498;0.092;2023-04-29T03:48:28;1015.29;;;12.14;91.67
64230;BME280;50547;49.498;0.092;2023-04-29T03:50:58;1015.29;;;12.06;92.11
64230;BME280;50547;49.498;0.092;2023-04-29T03:53:27;1015.27;;;12.08;92.03
64230;BME280;50547;49.498;0.092;2023-04-29T03:55:56;1015.31;;;12.02;92.36
64230;BME280;50547;49.498;0.092;2023-04-29T03:58:25;1015.34;;;12.01;92.24
64230;BME280;50547;49.498;0.092;2023-04-29T04:00:51;1015.32;;;12.09;91.70
64230;BME280;50547;49.498;0.092;2023-04-29T04:03:21;1015.31;;;12.05;92.00
64230;BME280;50547;49.498;0.092;2023-04-29T04:05:50;1015.31;;;12.06;91.84
64230;BME280;50547;49.498;0.092;2023-04-29T04:08:19;1015.34;;;12.13;91.35
64230;BME280;50547;49.498;0.092;2023-04-29T04:10:48;1015.29;;;12.07;91.88
64230;BME280;50547;49.498;0.092;2023-04-29T04:13:17;1015.34;;;12.12;91.61
64230;BME280;50547;49.498;0.092;2023-04-29T04:15:48;1015.36;;;12.05;92.03
64230;BME280;50547;49.498;0.092;2023-04-29T04:18:17;1015.36;;;12.09;91.66
64230;BME280;50547;49.498;0.092;2023-04-29T04:20:47;1015.40;;;12.03;91.95
64230;BME280;50547;49.498;0.092;2023-04-29T04:23:16;1015.42;;;11.98;92.05
64230;BME280;50547;49.498;0.092;2023-04-29T04:25:46;1015.44;;;12.04;91.74
64230;BME280;50547;49.498;0.092;2023-04-29T04:28:15;1015.44;;;12.07;91.38
64230;BME280;50547;49.498;0.092;2023-04-29T04:30:45;1015.42;;;12.11;91.11
64230;BME280;50547;49.498;0.092;2023-04-29T04:33:14;1015.44;;;12.14;91.20
64230;BME280;50547;49.498;0.092;2023-04-29T04:35:43;1015.44;;;12.23;91.04
64230;BME280;50547;49.498;0.092;2023-04-29T04:38:12;1015.48;;;12.38;90.62
64230;BME280;50547;49.498;0.092;2023-04-29T04:40:42;1015.48;;;12.59;90.14
64230;BME280;50547;49.498;0.092;2023-04-29T04:43:11;1015.50;;;12.72;89.87
64230;BME280;50547;49.498;0.092;2023-04-29T04:45:40;1015.56;;;12.92;89.49
64230;BME280;50547;49.498;0.092;2023-04-29T04:48:09;1015.54;;;12.84;89.90
64230;BME280;50547;49.498;0.092;2023-04-29T04:50:39;1015.54;;;12.67;90.33
64230;BME280;50547;49.498;0.092;2023-04-29T04:53:08;1015.56;;;12.69;90.24
64230;BME280;50547;49.498;0.092;2023-04-29T04:55:37;1015.56;;;12.87;89.40
64230;BME280;50547;49.498;0.092;2023-04-29T04:58:06;1015.60;;;12.91;89.51
64230;BME280;50547;49.498;0.092;2023-04-29T05:00:35;1015.60;;;12.77;89.87
64230;BME280;50547;49.498;0.092;2023-04-29T05:03:04;1015.64;;;12.85;89.45
64230;BME280;50547;49.498;0.092;2023-04-29T05:05:33;1015.66;;;13.05;88.85
64230;BME280;50547;49.498;0.092;2023-04-29T05:08:03;1015.66;;;13.35;88.01
64230;BME280;50547;49.498;0.092;2023-04-29T05:10:35;1015.78;;;13.50;87.79
64230;BME280;50547;49.498;0.092;2023-04-29T05:13:04;1015.88;;;13.57;88.06
64230;BME280;50547;49.498;0.092;2023-04-29T05:15:34;1015.92;;;13.35;88.89
64230;BME280;50547;49.498;0.092;2023-04-29T05:18:03;1015.98;;;13.40;88.63
64230;BME280;50547;49.498;0.092;2023-04-29T05:20:32;1015.94;;;13.52;88.21
64230;BME280;50547;49.498;0.092;2023-04-29T05:23:01;1016.00;;;13.80;87.41
64230;BME280;50547;49.498;0.092;2023-04-29T05:25:30;1015.98;;;13.92;87.25
64230;BME280;50547;49.498;0.092;2023-04-29T05:28:01;1016.02;;;13.98;87.06
64230;BME280;50547;49.498;0.092;2023-04-29T05:30:30;1016.10;;;14.01;87.38
64230;BME280;50547;49.498;0.092;2023-04-29T05:32:59;1016.10;;;14.13;87.05
64230;BME280;50547;49.498;0.092;2023-04-29T05:35:29;1016.08;;;14.11;87.38
64230;BME280;50547;49.498;0.092;2023-04-29T05:37:58;1016.08;;;14.12;87.22
64230;BME280;50547;49.498;0.092;2023-04-29T05:40:27;1016.10;;;14.19;86.98
64230;BME280;50547;49.498;0.092;2023-04-29T05:42:56;1016.14;;;14.37;86.62
64230;BME280;50547;49.498;0.092;2023-04-29T05:45:25;1016.14;;;14.41;86.80
64230;BME280;50547;49.498;0.092;2023-04-29T05:47:54;1016.19;;;14.50;86.54
64230;BME280;50547;49.498;0.092;2023-04-29T05:50:23;1016.21;;;14.57;86.27
64230;BME280;50547;49.498;0.092;2023-04-29T05:52:52;1016.23;;;14.55;86.35
64230;BME280;50547;49.498;0.092;2023-04-29T05:55:22;1016.21;;;14.54;86.22
64230;BME280;50547;49.498;0.092;2023-04-29T05:57:51;1016.25;;;14.49;86.03
64230;BME280;50547;49.498;0.092;2023-04-29T06:00:20;1016.25;;;14.40;86.19
64230;BME280;50547;49.498;0.092;2023-04-29T06:02:49;1016.31;;;14.50;85.45
64230;BME280;50547;49.498;0.092;2023-04-29T06:05:18;1016.31;;;14.50;85.72
64230;BME280;50547;49.498;0.092;2023-04-29T06:07:47;1016.35;;;14.65;85.24
64230;BME280;50547;49.498;0.092;2023-04-29T06:10:17;1016.35;;;14.71;84.97
64230;BME280;50547;49.498;0.092;2023-04-29T06:12:46;1016.39;;;14.49;85.06
64230;BME280;50547;49.498;0.092;2023-04-29T06:15:15;1016.39;;;14.52;85.09
64230;BME280;50547;49.498;0.092;2023-04-29T06:17:45;1016.41;;;14.48;85.61
64230;BME280;50547;49.498;0.092;2023-04-29T06:20:14;1016.43;;;14.53;85.46
64230;BME280;50547;49.498;0.092;2023-04-29T06:22:43;1016.41;;;14.72;84.48
64230;BME280;50547;49.498;0.092;2023-04-29T06:25:12;1016.45;;;14.76;84.62
64230;BME280;50547;49.498;0.092;2023-04-29T06:27:41;1016.47;;;14.97;84.21
64230;BME280;50547;49.498;0.092;2023-04-29T06:30:10;1016.51;;;14.95;84.20
64230;BME280;50547;49.498;0.092;2023-04-29T06:32:40;1016.51;;;14.98;84.03
64230;BME280;50547;49.498;0.092;2023-04-29T06:35:09;1016.51;;;14.75;84.90
64230;BME280;50547;49.498;0.092;2023-04-29T06:37:38;1016.51;;;14.75;84.38
64230;BME280;50547;49.498;0.092;2023-04-29T06:40:08;1016.53;;;14.78;84.00
64230;BME280;50547;49.498;0.092;2023-04-29T06:42:38;1016.55;;;14.74;84.03
64230;BME280;50547;49.498;0.092;2023-04-29T06:45:07;1016.55;;;14.67;84.18
64230;BME280;50547;49.498;0.092;2023-04-29T06:47:36;1016.59;;;14.71;84.04
64230;BME280;50547;49.498;0.092;2023-04-29T06:50:06;1016.61;;;14.78;84.05
64230;BME280;50547;49.498;0.092;2023-04-29T06:52:35;1016.63;;;14.80;84.08
64230;BME280;50547;49.498;0.092;2023-04-29T06:55:05;1016.64;;;14.94;83.55
64230;BME280;50547;49.498;0.092;2023-04-29T06:57:34;1016.63;;;14.89;83.63
64230;BME280;50547;49.498;0.092;2023-04-29T07:00:04;1016.63;;;14.89;83.69
64230;BME280;50547;49.498;0.092;2023-04-29T07:02:34;1016.66;;;15.00;83.44
64230;BME280;50547;49.498;0.092;2023-04-29T07:05:03;1016.72;;;15.20;82.92
64230;BME280;50547;49.498;0.092;2023-04-29T07:07:33;1016.78;;;15.30;82.82
64230;BME280;50547;49.498;0.092;2023-04-29T07:10:02;1016.72;;;15.41;82.62
64230;BME280;50547;49.498;0.092;2023-04-29T07:12:31;1016.76;;;15.42;82.21
64230;BME280;50547;49.498;0.092;2023-04-29T07:15:00;1016.80;;;15.20;83.20
64230;BME280;50547;49.498;0.092;2023-04-29T07:17:29;1016.80;;;15.03;83.62
64230;BME280;50547;49.498;0.092;2023-04-29T07:19:58;1016.84;;;15.09;82.94
64230;BME280;50547;49.498;0.092;2023-04-29T07:22:27;1016.82;;;15.19;82.42
64230;BME280;50547;49.498;0.092;2023-04-29T07:24:57;1016.84;;;15.35;81.78
64230;BME280;50547;49.498;0.092;2023-04-29T07:27:26;1016.86;;;15.32;81.98
64230;BME280;50547;49.498;0.092;2023-04-29T07:29:52;1016.86;;;15.37;81.94
64230;BME280;50547;49.498;0.092;2023-04-29T07:32:21;1016.88;;;15.58;81.50
64230;BME280;50547;49.498;0.092;2023-04-29T07:34:50;1016.86;;;15.64;80.96
64230;BME280;50547;49.498;0.092;2023-04-29T07:37:19;1016.88;;;15.79;80.90
64230;BME280;50547;49.498;0.092;2023-04-29T07:39:48;1016.88;;;15.89;80.72
64230;BME280;50547;49.498;0.092;2023-04-29T07:42:17;1016.92;;;16.15;80.26
64230;BME280;50547;49.498;0.092;2023-04-29T07:44:47;1016.98;;;16.23;79.94
64230;BME280;50547;49.498;0.092;2023-04-29T07:47:16;1017.00;;;16.08;80.11
64230;BME280;50547;49.498;0.092;2023-04-29T07:49:45;1017.02;;;16.06;80.30
64230;BME280;50547;49.498;0.092;2023-04-29T07:52:14;1017.06;;;16.20;79.75
64230;BME280;50547;49.498;0.092;2023-04-29T07:54:43;1017.13;;;16.25;79.73
64230;BME280;50547;49.498;0.092;2023-04-29T07:57:12;1017.11;;;16.16;80.30
64230;BME280;50547;49.498;0.092;2023-04-29T07:59:41;1017.06;;;16.23;80.11
64230;BME280;50547;49.498;0.092;2023-04-29T08:02:10;1017.04;;;15.87;80.98
64230;BME280;50547;49.498;0.092;2023-04-29T08:04:39;1017.08;;;15.54;81.43
64230;BME280;50547;49.498;0.092;2023-04-29T08:07:09;1017.04;;;15.38;80.68
64230;BME280;50547;49.498;0.092;2023-04-29T08:09:38;1017.08;;;15.14;81.05
64230;BME280;50547;49.498;0.092;2023-04-29T08:12:07;1017.11;;;15.08;80.12
64230;BME280;50547;49.498;0.092;2023-04-29T08:14:36;1017.10;;;14.98;80.21
64230;BME280;50547;49.498;0.092;2023-04-29T08:17:05;1017.17;;;15.44;79.08
64230;BME280;50547;49.498;0.092;2023-04-29T08:19:34;1017.19;;;15.72;78.47
64230;BME280;50547;49.498;0.092;2023-04-29T08:22:04;1017.23;;;15.82;78.04
64230;BME280;50547;49.498;0.092;2023-04-29T08:24:33;1017.21;;;15.91;78.02
64230;BME280;50547;49.498;0.092;2023-04-29T08:27:02;1017.23;;;16.07;77.49
64230;BME280;50547;49.498;0.092;2023-04-29T08:29:32;1017.23;;;16.31;77.04
64230;BME280;50547;49.498;0.092;2023-04-29T08:32:01;1017.31;;;16.09;76.33
64230;BME280;50547;49.498;0.092;2023-04-29T08:34:30;1017.33;;;16.29;76.51
64230;BME280;50547;49.498;0.092;2023-04-29T08:36:59;1017.33;;;16.76;74.88
64230;BME280;50547;49.498;0.092;2023-04-29T08:39:29;1017.41;;;16.98;74.70
64230;BME280;50547;49.498;0.092;2023-04-29T08:41:58;1017.39;;;17.19;74.51
64230;BME280;50547;49.498;0.092;2023-04-29T08:44:28;1017.37;;;16.92;75.17
64230;BME280;50547;49.498;0.092;2023-04-29T08:46:58;1017.37;;;16.53;76.86
64230;BME280;50547;49.498;0.092;2023-04-29T08:49:28;1017.43;;;16.93;75.56
64230;BME280;50547;49.498;0.092;2023-04-29T08:51:57;1017.47;;;17.49;73.97
64230;BME280;50547;49.498;0.092;2023-04-29T08:54:26;1017.47;;;17.47;73.18
64230;BME280;50547;49.498;0.092;2023-04-29T08:56:56;1017.39;;;16.26;77.67
64230;BME280;50547;49.498;0.092;2023-04-29T08:59:27;1017.45;;;16.14;78.52
64230;BME280;50547;49.498;0.092;2023-04-29T09:01:57;1017.45;;;16.37;76.88
64230;BME280;50547;49.498;0.092;2023-04-29T09:04:36;1017.45;;;16.69;75.35
64230;BME280;50547;49.498;0.092;2023-04-29T09:07:06;1017.51;;;16.87;75.29
64230;BME280;50547;49.498;0.092;2023-04-29T09:09:36;1017.53;;;16.97;75.23
64230;BME280;50547;49.498;0.092;2023-04-29T09:12:06;1017.58;;;16.86;75.25
64230;BME280;50547;49.498;0.092;2023-04-29T09:14:35;1017.57;;;16.84;75.44
64230;BME280;50547;49.498;0.092;2023-04-29T09:17:05;1017.53;;;16.08;78.25
64230;BME280;50547;49.498;0.092;2023-04-29T09:19:35;1017.53;;;16.48;76.66
64230;BME280;50547;49.498;0.092;2023-04-29T09:22:04;1017.49;;;16.31;76.52
64230;BME280;50547;49.498;0.092;2023-04-29T09:24:33;1017.57;;;16.62;75.64
64230;BME280;50547;49.498;0.092;2023-04-29T09:27:02;1017.60;;;16.88;74.03
64230;BME280;50547;49.498;0.092;2023-04-29T09:29:31;1017.57;;;16.72;73.35
64230;BME280;50547;49.498;0.092;2023-04-29T09:32:18;1017.55;;;16.39;74.15
64230;BME280;50547;49.498;0.092;2023-04-29T09:34:47;1017.55;;;16.33;74.89
64230;BME280;50547;49.498;0.092;2023-04-29T09:37:23;1017.57;;;16.75;72.71
64230;BME280;50547;49.498;0.092;2023-04-29T09:39:51;1017.58;;;16.27;74.21
64230;BME280;50547;49.498;0.092;2023-04-29T09:42:25;1017.55;;;16.51;73.94
64230;BME280;50547;49.498;0.092;2023-04-29T09:44:54;1017.58;;;16.91;71.03
64230;BME280;50547;49.498;0.092;2023-04-29T09:47:29;1017.60;;;16.52;72.60
64230;BME280;50547;49.498;0.092;2023-04-29T09:50:10;1017.66;;;15.95;76.19
64230;BME280;50547;49.498;0.092;2023-04-29T09:52:40;1017.62;;;15.89;77.16
64230;BME280;50547;49.498;0.092;2023-04-29T09:55:10;1017.62;;;16.10;75.26
64230;BME280;50547;49.498;0.092;2023-04-29T09:57:39;1017.64;;;16.50;73.38
64230;BME280;50547;49.498;0.092;2023-04-29T10:00:10;1017.66;;;17.03;71.20
64230;BME280;50547;49.498;0.092;2023-04-29T10:02:41;1017.70;;;17.41;68.39
64230;BME280;50547;49.498;0.092;2023-04-29T10:05:11;1017.70;;;17.90;67.43
64230;BME280;50547;49.498;0.092;2023-04-29T10:07:42;1017.62;;;17.82;69.28
64230;BME280;50547;49.498;0.092;2023-04-29T10:10:09;1017.68;;;17.10;73.56
64230;BME280;50547;49.498;0.092;2023-04-29T10:12:39;1017.64;;;17.01;74.91
64230;BME280;50547;49.498;0.092;2023-04-29T10:15:24;1017.66;;;16.56;77.18
64230;BME280;50547;49.498;0.092;2023-04-29T10:17:58;1017.64;;;16.33;77.64
64230;BME280;50547;49.498;0.092;2023-04-29T10:20:32;1017.68;;;16.28;77.67
64230;BME280;50547;49.498;0.092;2023-04-29T10:23:01;1017.66;;;15.93;78.55
64230;BME280;50547;49.498;0.092;2023-04-29T10:25:32;1017.66;;;15.73;78.82
64230;BME280;50547;49.498;0.092;2023-04-29T10:28:05;1017.66;;;15.75;77.85
64230;BME280;50547;49.498;0.092;2023-04-29T10:30:37;1017.64;;;15.94;76.82
64230;BME280;50547;49.498;0.092;2023-04-29T10:33:09;1017.64;;;16.14;76.19
64230;BME280;50547;49.498;0.092;2023-04-29T10:35:39;1017.62;;;16.04;76.62
64230;BME280;50547;49.498;0.092;2023-04-29T10:38:22;1017.66;;;16.05;76.75
64230;BME280;50547;49.498;0.092;2023-04-29T10:40:52;1017.64;;;16.21;76.18
64230;BME280;50547;49.498;0.092;2023-04-29T10:43:24;1017.64;;;16.10;76.73
64230;BME280;50547;49.498;0.092;2023-04-29T10:46:29;1017.64;;;16.28;75.57
64230;BME280;50547;49.498;0.092;2023-04-29T10:49:00;1017.68;;;16.60;74.65
64230;BME280;50547;49.498;0.092;2023-04-29T10:51:32;1017.64;;;16.82;73.73
64230;BME280;50547;49.498;0.092;2023-04-29T10:54:06;1017.66;;;17.36;72.23
64230;BME280;50547;49.498;0.092;2023-04-29T10:56:43;1017.68;;;17.49;71.49
64230;BME280;50547;49.498;0.092;2023-04-29T10:59:13;1017.68;;;17.80;71.06
64230;BME280;50547;49.498;0.092;2023-04-29T11:01:46;1017.74;;;17.90;70.79
64230;BME280;50547;49.498;0.092;2023-04-29T11:04:17;1017.70;;;17.82;70.85
64230;BME280;50547;49.498;0.092;2023-04-29T11:06:50;1017.80;;;17.90;70.83
64230;BME280;50547;49.498;0.092;2023-04-29T11:09:23;1017.82;;;18.05;70.19
64230;BME280;50547;49.498;0.092;2023-04-29T11:11:58;1017.82;;;17.40;72.33
64230;BME280;50547;49.498;0.092;2023-04-29T11:14:30;1017.82;;;16.55;75.61
64230;BME280;50547;49.498;0.092;2023-04-29T11:17:01;1017.88;;;16.48;75.11
64230;BME280;50547;49.498;0.092;2023-04-29T11:19:33;1017.92;;;16.43;75.05
64230;BME280;50547;49.498;0.092;2023-04-29T11:22:07;1017.92;;;16.33;75.08
64230;BME280;50547;49.498;0.092;2023-04-29T11:24:48;1017.92;;;16.68;73.29
64230;BME280;50547;49.498;0.092;2023-04-29T11:27:19;1017.94;;;16.94;72.06
64230;BME280;50547;49.498;0.092;2023-04-29T11:29:49;1017.90;;;16.64;73.37
64230;BME280;50547;49.498;0.092;2023-04-29T11:32:19;1017.88;;;16.72;73.14
64230;BME280;50547;49.498;0.092;2023-04-29T11:34:48;1017.90;;;16.43;74.16
64230;BME280;50547;49.498;0.092;2023-04-29T11:37:24;1017.88;;;16.43;74.15
64230;BME280;50547;49.498;0.092;2023-04-29T11:39:59;1017.80;;;16.51;73.39
64230;BME280;50547;49.498;0.092;2023-04-29T11:42:34;1017.88;;;16.38;73.40
64230;BME280;50547;49.498;0.092;2023-04-29T11:45:07;1017.82;;;16.71;72.02
64230;BME280;50547;49.498;0.092;2023-04-29T11:47:41;1017.80;;;16.91;71.77
64230;BME280;50547;49.498;0.092;2023-04-29T11:50:08;1017.80;;;16.85;71.84
64230;BME280;50547;49.498;0.092;2023-04-29T11:52:38;1017.78;;;16.95;71.52
64230;BME280;50547;49.498;0.092;2023-04-29T11:55:08;1017.74;;;17.07;71.50
64230;BME280;50547;49.498;0.092;2023-04-29T11:57:38;1017.80;;;17.20;70.67
64230;BME280;50547;49.498;0.092;2023-04-29T12:00:08;1017.74;;;16.90;71.97
64230;BME280;50547;49.498;0.092;2023-04-29T12:02:38;1017.74;;;16.93;71.64
64230;BME280;50547;49.498;0.092;2023-04-29T12:05:08;1017.70;;;16.61;73.10
64230;BME280;50547;49.498;0.092;2023-04-29T12:07:38;1017.70;;;16.62;72.89
64230;BME280;50547;49.498;0.092;2023-04-29T12:10:08;1017.70;;;17.07;71.32
64230;BME280;50547;49.498;0.092;2023-04-29T12:12:37;1017.76;;;17.65;69.23
64230;BME280;50547;49.498;0.092;2023-04-29T12:15:07;1017.72;;;17.48;69.57
64230;BME280;50547;49.498;0.092;2023-04-29T12:17:37;1017.76;;;17.29;70.95
64230;BME280;50547;49.498;0.092;2023-04-29T12:20:08;1017.78;;;17.00;71.84
64230;BME280;50547;49.498;0.092;2023-04-29T12:22:38;1017.72;;;16.88;71.87
64230;BME280;50547;49.498;0.092;2023-04-29T12:25:08;1017.76;;;16.99;71.12
64230;BME280;50547;49.498;0.092;2023-04-29T12:27:38;1017.72;;;16.97;71.27
64230;BME280;50547;49.498;0.092;2023-04-29T12:30:10;1017.70;;;16.99;71.24
64230;BME280;50547;49.498;0.092;2023-04-29T12:32:39;1017.72;;;16.95;71.15
64230;BME280;50547;49.498;0.092;2023-04-29T12:35:14;1017.66;;;17.17;70.37
64230;BME280;50547;49.498;0.092;2023-04-29T12:37:40;1017.72;;;17.34;69.17
64230;BME280;50547;49.498;0.092;2023-04-29T12:40:12;1017.70;;;17.24;70.04
64230;BME280;50547;49.498;0.092;2023-04-29T12:42:47;1017.72;;;17.54;68.66
64230;BME280;50547;49.498;0.092;2023-04-29T12:45:33;1017.78;;;17.53;68.85
64230;BME280;50547;49.498;0.092;2023-04-29T12:48:01;1017.72;;;17.07;70.89
64230;BME280;50547;49.498;0.092;2023-04-29T12:50:35;1017.74;;;17.19;69.99
64230;BME280;50547;49.498;0.092;2023-04-29T12:53:01;1017.68;;;17.44;69.02
64230;BME280;50547;49.498;0.092;2023-04-29T12:55:32;1017.68;;;17.48;68.60
64230;BME280;50547;49.498;0.092;2023-04-29T12:57:59;1017.66;;;17.29;69.22
64230;BME280;50547;49.498;0.092;2023-04-29T13:00:29;1017.66;;;18.01;67.09
64230;BME280;50547;49.498;0.092;2023-04-29T13:02:58;1017.64;;;18.19;65.59
64230;BME280;50547;49.498;0.092;2023-04-29T13:05:28;1017.57;;;18.27;65.53
64230;BME280;50547;49.498;0.092;2023-04-29T13:07:57;1017.53;;;18.67;65.19
64230;BME280;50547;49.498;0.092;2023-04-29T13:10:26;1017.51;;;18.82;64.46
64230;BME280;50547;49.498;0.092;2023-04-29T13:12:55;1017.53;;;19.14;63.47
64230;BME280;50547;49.498;0.092;2023-04-29T13:15:25;1017.51;;;19.34;63.36
64230;BME280;50547;49.498;0.092;2023-04-29T13:17:54;1017.41;;;19.50;62.99
64230;BME280;50547;49.498;0.092;2023-04-29T13:20:23;1017.47;;;18.73;65.47
64230;BME280;50547;49.498;0.092;2023-04-29T13:22:53;1017.47;;;18.90;65.26
64230;BME280;50547;49.498;0.092;2023-04-29T13:25:22;1017.43;;;18.85;65.36
64230;BME280;50547;49.498;0.092;2023-04-29T13:27:51;1017.45;;;19.39;62.85